Time;durP1;ratioP1;P1;durP2;ratioP2;P2;SDS_P1;SDS_P2;PMS_P1;PMS_P2;Temp;Humidity;BMP_temperature;BMP_pressure;BME280_temperature;BME280_humidity;BME280_pressure;Samples;Min_cycle;Max_cycle;Signal;HPM_P1;HPM_P2
2022/09/22 00:01:35;;;;;;;13.70;8.50;;;;;;;;;;5034523;28;20183;-65
2022/09/22 00:04:04;;;;;;;16.37;8.97;;;;;;;;;;5035109;28;20621;-65
2022/09/22 00:06:31;;;;;;;13.03;8.73;;;;;;;;;;5016923;28;20180;-65
2022/09/22 00:09:02;;;;;;;12.77;8.73;;;;;;;;;;5016879;28;20636;-65
2022/09/22 00:11:29;;;;;;;13.77;9.20;;;;;;;;;;5034697;28;20163;-65
2022/09/22 00:13:58;;;;;;;13.73;9.20;;;;;;;;;;5034425;28;20202;-65
2022/09/22 00:16:26;;;;;;;12.30;9.27;;;;;;;;;;5033588;28;20185;-65
2022/09/22 00:18:52;;;;;;;11.30;9.00;;;;;;;;;;5034914;28;20186;-65
2022/09/22 00:21:20;;;;;;;16.80;9.30;;;;;;;;;;5035136;28;20183;-65
2022/09/22 00:23:46;;;;;;;13.60;9.27;;;;;;;;;;5034527;28;20195;-65
2022/09/22 00:26:14;;;;;;;12.83;9.37;;;;;;;;;;5034371;28;20179;-65
2022/09/22 00:28:41;;;;;;;12.60;9.27;;;;;;;;;;5016547;28;20217;-65
2022/09/22 00:31:08;;;;;;;13.73;9.60;;;;;;;;;;5016625;28;20191;-65
2022/09/22 00:33:34;;;;;;;15.87;9.90;;;;;;;;;;5016793;28;20567;-64
2022/09/22 00:36:00;;;;;;;13.73;9.47;;;;;;;;;;5016549;28;20730;-65
2022/09/22 00:38:27;;;;;;;12.80;9.77;;;;;;;;;;5034289;28;20532;-64
2022/09/22 00:40:53;;;;;;;13.43;9.40;;;;;;;;;;5016278;28;20214;-65
2022/09/22 00:43:20;;;;;;;15.87;10.17;;;;;;;;;;5034071;28;20581;-64
2022/09/22 00:45:48;;;;;;;17.60;9.83;;;;;;;;;;5034049;28;20596;-65
2022/09/22 00:48:14;;;;;;;16.70;10.43;;;;;;;;;;5016499;28;20179;-66
2022/09/22 00:50:40;;;;;;;20.07;10.10;;;;;;;;;;5034066;28;20176;-65
2022/09/22 00:53:09;;;;;;;17.80;10.27;;;;;;;;;;5033889;28;20634;-66
2022/09/22 00:55:42;;;;;;;19.43;9.53;;;;;;;;;;5016347;28;20730;-65
2022/09/22 00:58:09;;;;;;;14.87;10.57;;;;;;;;;;5034265;28;20631;-65
2022/09/22 01:00:36;;;;;;;18.38;11.85;;;;;;;;;;5033370;28;20453;-65
2022/09/22 01:03:04;;;;;;;14.47;9.87;;;;;;;;;;5034432;28;20228;-65
2022/09/22 01:05:32;;;;;;;15.60;10.37;;;;;;;;;;5016331;28;20229;-65
2022/09/22 01:07:58;;;;;;;19.20;10.93;;;;;;;;;;5034132;28;20177;-65
2022/09/22 01:10:26;;;;;;;16.30;10.47;;;;;;;;;;5016072;28;20202;-65
2022/09/22 01:13:05;;;;;;;15.87;10.57;;;;;;;;;;5015865;28;20235;-64
2022/09/22 01:16:00;;;;;;;15.13;10.57;;;;;;;;;;5033994;28;20171;-65
2022/09/22 01:18:44;;;;;;;15.57;10.73;;;;;;;;;;4996041;28;20202;-65
2022/09/22 01:21:19;;;;;;;13.27;9.83;;;;;;;;;;5034158;28;20190;-65
2022/09/22 01:23:54;;;;;;;15.53;9.77;;;;;;;;;;5033496;28;20226;-65
2022/09/22 01:26:20;;;;;;;13.80;9.70;;;;;;;;;;5033466;28;20254;-66
2022/09/22 01:29:05;;;;;;;17.80;10.70;;;;;;;;;;5036666;28;20670;-65
2022/09/22 01:31:34;;;;;;;13.27;9.13;;;;;;;;;;5037662;28;20544;-65
2022/09/22 01:34:07;;;;;;;15.03;9.70;;;;;;;;;;5019694;28;20203;-65
2022/09/22 01:36:39;;;;;;;12.53;9.67;;;;;;;;;;5019882;28;20187;-65
2022/09/22 01:39:05;;;;;;;14.47;9.77;;;;;;;;;;5037957;28;20181;-65
2022/09/22 01:41:36;;;;;;;16.93;10.20;;;;;;;;;;5037767;28;20262;-66
2022/09/22 01:44:24;;;;;;;12.37;9.57;;;;;;;;;;5037228;28;20265;-65
2022/09/22 01:46:53;;;;;;;12.27;9.27;;;;;;;;;;5020664;28;20171;-65
2022/09/22 01:49:19;;;;;;;12.70;9.83;;;;;;;;;;5037511;28;20167;-65
2022/09/22 01:51:51;;;;;;;14.90;10.10;;;;;;;;;;5019666;28;20207;-66
2022/09/22 01:54:38;;;;;;;11.53;9.23;;;;;;;;;;5019641;28;20218;-66
2022/09/22 01:57:10;;;;;;;13.00;9.60;;;;;;;;;;5037344;28;20644;-67
2022/09/22 01:59:37;;;;;;;10.83;8.87;;;;;;;;;;5037822;28;20178;-66
2022/09/22 02:02:06;;;;;;;14.83;9.33;;;;;;;;;;5019416;28;20674;-65
2022/09/22 02:04:39;;;;;;;11.60;9.40;;;;;;;;;;5036954;28;20256;-65
2022/09/22 02:07:08;;;;;;;13.53;8.97;;;;;;;;;;5036953;28;20245;-65
2022/09/22 02:09:34;;;;;;;12.50;8.97;;;;;;;;;;5019385;28;20186;-67
2022/09/22 02:12:02;;;;;;;15.03;10.40;;;;;;;;;;5036880;28;20171;-65
2022/09/22 02:14:28;;;;;;;15.67;9.90;;;;;;;;;;5036642;28;20195;-65
2022/09/22 02:16:54;;;;;;;14.60;9.50;;;;;;;;;;5018968;28;20639;-66
2022/09/22 02:19:24;;;;;;;17.97;8.80;;;;;;;;;;5019363;28;20191;-65
2022/09/22 02:21:50;;;;;;;14.53;9.30;;;;;;;;;;5018991;28;20695;-66
2022/09/22 02:24:31;;;;;;;13.70;9.47;;;;;;;;;;5037276;28;20249;-66
2022/09/22 02:26:57;;;;;;;11.40;9.40;;;;;;;;;;5019031;28;20179;-65
2022/09/22 02:29:24;;;;;;;14.93;9.60;;;;;;;;;;5037562;28;20172;-66
2022/09/22 02:31:51;;;;;;;10.87;9.17;;;;;;;;;;5037254;28;20182;-66
2022/09/22 02:34:17;;;;;;;14.60;9.93;;;;;;;;;;5038276;28;20198;-66
2022/09/22 02:36:55;;;;;;;14.13;9.73;;;;;;;;;;5028648;28;20187;-66
2022/09/22 02:39:27;;;;;;;15.03;10.13;;;;;;;;;;5049610;28;20651;-65
2022/09/22 02:42:17;;;;;;;14.67;9.53;;;;;;;;;;5032428;28;20179;-66
2022/09/22 02:44:53;;;;;;;12.93;9.67;;;;;;;;;;5019426;28;20195;-65
2022/09/22 02:47:24;;;;;;;15.63;9.43;;;;;;;;;;5036613;28;20161;-65
2022/09/22 02:49:50;;;;;;;13.33;8.77;;;;;;;;;;5036526;28;20171;-65
2022/09/22 02:52:18;;;;;;;13.50;8.60;;;;;;;;;;5035893;28;20183;-64
2022/09/22 02:54:44;;;;;;;14.97;9.33;;;;;;;;;;5018632;28;20182;-65
2022/09/22 02:57:10;;;;;;;13.97;8.77;;;;;;;;;;5036217;28;20171;-65
2022/09/22 02:59:36;;;;;;;10.37;8.10;;;;;;;;;;5018193;28;20210;-65
2022/09/22 03:02:02;;;;;;;12.43;8.30;;;;;;;;;;5036145;28;20175;-66
2022/09/22 03:04:28;;;;;;;13.50;7.97;;;;;;;;;;5018361;28;20697;-65
2022/09/22 03:06:54;;;;;;;13.17;7.33;;;;;;;;;;5036464;28;20191;-65
2022/09/22 03:09:20;;;;;;;12.97;8.10;;;;;;;;;;5017971;28;20670;-65
2022/09/22 03:11:46;;;;;;;11.30;7.90;;;;;;;;;;5035752;28;20734;-65
2022/09/22 03:14:12;;;;;;;10.47;7.83;;;;;;;;;;5036134;28;20195;-65
2022/09/22 03:16:38;;;;;;;11.67;7.30;;;;;;;;;;5035821;28;20211;-64
2022/09/22 03:19:04;;;;;;;12.97;7.90;;;;;;;;;;5035621;28;20182;-65
2022/09/22 03:21:30;;;;;;;13.27;7.40;;;;;;;;;;5018020;28;20297;-64
2022/09/22 03:23:56;;;;;;;11.43;7.37;;;;;;;;;;5017967;28;20234;-66
2022/09/22 03:26:22;;;;;;;10.47;6.53;;;;;;;;;;5035872;28;20183;-65
2022/09/22 03:28:48;;;;;;;11.40;7.30;;;;;;;;;;5035634;28;20175;-66
2022/09/22 03:31:14;;;;;;;9.70;7.40;;;;;;;;;;5035395;28;20636;-65
2022/09/22 03:33:40;;;;;;;12.10;6.80;;;;;;;;;;5035236;28;20572;-66
2022/09/22 03:36:06;;;;;;;9.63;6.70;;;;;;;;;;5017665;28;20193;-64
2022/09/22 03:38:32;;;;;;;11.00;6.57;;;;;;;;;;5017682;28;20195;-66
2022/09/22 03:41:00;;;;;;;13.37;6.73;;;;;;;;;;5035456;28;20190;-65
2022/09/22 03:43:26;;;;;;;10.07;6.10;;;;;;;;;;5035113;28;20638;-65
2022/09/22 03:45:58;;;;;;;11.67;6.47;;;;;;;;;;5035116;28;20171;-65
2022/09/22 03:48:25;;;;;;;9.60;5.97;;;;;;;;;;5017417;28;20185;-65
2022/09/22 03:50:51;;;;;;;9.10;6.37;;;;;;;;;;5034860;28;20179;-65
2022/09/22 03:53:17;;;;;;;8.93;5.37;;;;;;;;;;5034724;28;20222;-65
2022/09/22 03:55:43;;;;;;;6.83;5.83;;;;;;;;;;5017551;28;20191;-64
2022/09/22 03:58:09;;;;;;;8.47;5.80;;;;;;;;;;5017185;28;20322;-64
2022/09/22 04:00:35;;;;;;;9.70;5.33;;;;;;;;;;5035238;28;20786;-65
2022/09/22 04:03:01;;;;;;;7.13;5.00;;;;;;;;;;5017185;28;20375;-64
2022/09/22 04:05:27;;;;;;;8.40;5.47;;;;;;;;;;5017255;28;20175;-65
2022/09/22 04:07:53;;;;;;;8.07;5.23;;;;;;;;;;5034684;28;20171;-64
2022/09/22 04:10:20;;;;;;;9.17;5.17;;;;;;;;;;5034819;28;20179;-64
2022/09/22 04:12:46;;;;;;;10.13;5.47;;;;;;;;;;5034896;28;20195;-65
2022/09/22 04:15:12;;;;;;;7.53;4.90;;;;;;;;;;5034822;28;20241;-64
2022/09/22 04:17:37;;;;;;;11.63;5.43;;;;;;;;;;5034845;28;20179;-64
2022/09/22 04:20:05;;;;;;;7.17;4.63;;;;;;;;;;5035235;28;20258;-65
2022/09/22 04:22:31;;;;;;;8.43;5.17;;;;;;;;;;5016987;28;20552;-64
2022/09/22 04:24:57;;;;;;;9.07;4.77;;;;;;;;;;5034292;28;20618;-64
2022/09/22 04:27:23;;;;;;;11.97;5.17;;;;;;;;;;5034676;28;20207;-65
2022/09/22 04:29:49;;;;;;;8.00;4.90;;;;;;;;;;5017785;28;20229;-64
2022/09/22 04:32:15;;;;;;;8.47;4.67;;;;;;;;;;5017905;28;20175;-64
2022/09/22 04:34:41;;;;;;;7.07;4.80;;;;;;;;;;5036187;28;20179;-66
2022/09/22 04:37:08;;;;;;;7.97;4.63;;;;;;;;;;5035678;28;20179;-65
2022/09/22 04:39:34;;;;;;;10.07;4.50;;;;;;;;;;5035989;28;20649;-65
2022/09/22 04:42:00;;;;;;;6.80;4.70;;;;;;;;;;5018661;28;20183;-65
2022/09/22 04:44:26;;;;;;;10.17;5.03;;;;;;;;;;5035399;28;20294;-66
2022/09/22 04:46:54;;;;;;;12.73;5.03;;;;;;;;;;5035550;28;20175;-65
2022/09/22 04:49:20;;;;;;;12.53;5.03;;;;;;;;;;5018045;28;20557;-66
2022/09/22 04:51:46;;;;;;;5.07;4.53;;;;;;;;;;5036029;28;20171;-65
2022/09/22 04:54:13;;;;;;;7.17;4.20;;;;;;;;;;5054020;23;20266;-68
2022/09/22 04:56:39;;;;;;;10.83;4.80;;;;;;;;;;5034219;28;20171;-66
2022/09/22 04:59:05;;;;;;;6.27;4.10;;;;;;;;;;5015871;28;20183;-68
2022/09/22 05:01:31;;;;;;;6.10;3.93;;;;;;;;;;5033881;28;20202;-67
2022/09/22 05:03:57;;;;;;;8.23;4.40;;;;;;;;;;5036689;28;20222;-67
2022/09/22 05:06:23;;;;;;;6.73;4.73;;;;;;;;;;5020161;28;20187;-68
2022/09/22 05:08:49;;;;;;;10.63;4.43;;;;;;;;;;5037762;28;20245;-68
2022/09/22 05:11:15;;;;;;;7.10;5.03;;;;;;;;;;5037867;28;20222;-67
2022/09/22 05:13:41;;;;;;;10.47;6.53;;;;;;;;;;5038667;28;20175;-67
2022/09/22 05:16:07;;;;;;;10.00;6.70;;;;;;;;;;5038580;28;20208;-68
2022/09/22 05:18:33;;;;;;;11.27;7.20;;;;;;;;;;5037933;28;20673;-67
2022/09/22 05:21:00;;;;;;;12.43;6.27;;;;;;;;;;5037912;28;20259;-68
2022/09/22 05:23:25;;;;;;;17.30;7.00;;;;;;;;;;5037671;28;20211;-67
2022/09/22 05:25:51;;;;;;;8.37;5.70;;;;;;;;;;5038148;28;20571;-67
2022/09/22 05:28:19;;;;;;;10.33;5.10;;;;;;;;;;5019816;28;20655;-67
2022/09/22 05:30:46;;;;;;;9.90;5.33;;;;;;;;;;5019744;28;20238;-67
2022/09/22 05:33:12;;;;;;;8.93;5.17;;;;;;;;;;5037294;28;20183;-68
2022/09/22 05:35:38;;;;;;;9.23;5.03;;;;;;;;;;5019698;28;20202;-68
2022/09/22 05:38:04;;;;;;;13.53;5.47;;;;;;;;;;5037891;28;20181;-68
2022/09/22 05:40:30;;;;;;;8.63;5.40;;;;;;;;;;5037800;28;20698;-65
2022/09/22 05:42:56;;;;;;;7.87;4.73;;;;;;;;;;5037857;28;20210;-67
2022/09/22 05:45:22;;;;;;;7.20;5.10;;;;;;;;;;5037318;28;20195;-66
2022/09/22 05:47:48;;;;;;;7.37;4.97;;;;;;;;;;5019818;28;20266;-67
2022/09/22 05:50:15;;;;;;;10.27;4.90;;;;;;;;;;5019793;28;20202;-67
2022/09/22 05:52:41;;;;;;;9.80;4.80;;;;;;;;;;5037334;28;20225;-67
2022/09/22 05:55:07;;;;;;;13.17;4.87;;;;;;;;;;5036794;28;20215;-67
2022/09/22 05:57:33;;;;;;;9.63;4.53;;;;;;;;;;5019607;28;20179;-67
2022/09/22 05:59:59;;;;;;;10.53;4.50;;;;;;;;;;5019510;28;20183;-68
2022/09/22 06:02:25;;;;;;;11.23;4.93;;;;;;;;;;5037173;28;20179;-66
2022/09/22 06:04:51;;;;;;;7.50;5.33;;;;;;;;;;5036934;28;20231;-66
2022/09/22 06:07:20;;;;;;;9.57;5.20;;;;;;;;;;5036842;28;20183;-66
2022/09/22 06:09:47;;;;;;;10.93;5.30;;;;;;;;;;5019320;28;20337;-66
2022/09/22 06:12:13;;;;;;;11.17;5.03;;;;;;;;;;5036645;28;20198;-66
2022/09/22 06:14:39;;;;;;;7.67;4.90;;;;;;;;;;5018572;28;20687;-66
2022/09/22 06:17:09;;;;;;;8.07;4.60;;;;;;;;;;5036569;28;20258;-66
2022/09/22 06:19:35;;;;;;;7.73;4.27;;;;;;;;;;5036260;28;20734;-66
2022/09/22 06:22:01;;;;;;;8.07;4.83;;;;;;;;;;5037233;28;20218;-66
2022/09/22 06:24:27;;;;;;;8.93;4.50;;;;;;;;;;5036688;28;20237;-67
2022/09/22 06:26:53;;;;;;;10.53;5.63;;;;;;;;;;5036639;28;20175;-66
2022/09/22 06:29:19;;;;;;;10.57;4.60;;;;;;;;;;5018843;28;20179;-67
2022/09/22 06:31:47;;;;;;;8.30;4.23;;;;;;;;;;5036485;28;20265;-67
2022/09/22 06:34:13;;;;;;;13.40;4.60;;;;;;;;;;5036738;28;20238;-67
2022/09/22 06:36:41;;;;;;;6.57;4.27;;;;;;;;;;5036001;28;20179;-67
2022/09/22 06:39:07;;;;;;;9.00;4.33;;;;;;;;;;5018676;28;20224;-67
2022/09/22 06:41:33;;;;;;;11.67;5.17;;;;;;;;;;5036354;28;20221;-67
2022/09/22 06:43:59;;;;;;;5.93;4.50;;;;;;;;;;5036399;28;20304;-66
2022/09/22 06:46:26;;;;;;;8.93;5.10;;;;;;;;;;5036503;28;20183;-67
2022/09/22 06:48:56;;;;;;;9.40;4.50;;;;;;;;;;5018137;28;20179;-66
2022/09/22 06:51:24;;;;;;;9.90;5.27;;;;;;;;;;5017997;28;20179;-66
2022/09/22 06:53:50;;;;;;;7.67;4.90;;;;;;;;;;5018227;28;20214;-66
2022/09/22 06:56:18;;;;;;;7.40;4.87;;;;;;;;;;5036200;28;20241;-66
2022/09/22 06:58:44;;;;;;;14.83;5.60;;;;;;;;;;5035932;28;20521;-63
2022/09/22 07:01:11;;;;;;;14.80;4.70;;;;;;;;;;5018487;28;20613;-66
2022/09/22 07:03:40;;;;;;;8.53;4.60;;;;;;;;;;5035460;28;20609;-66
2022/09/22 07:06:07;;;;;;;6.97;4.70;;;;;;;;;;5035767;28;20175;-66
2022/09/22 07:08:33;;;;;;;6.37;4.50;;;;;;;;;;5035535;28;20259;-66
2022/09/22 07:11:01;;;;;;;12.47;5.43;;;;;;;;;;5035803;28;20175;-65
2022/09/22 07:13:31;;;;;;;13.37;4.77;;;;;;;;;;5035688;28;20175;-66
2022/09/22 07:16:01;;;;;;;8.70;5.00;;;;;;;;;;5017576;28;20195;-66
2022/09/22 07:18:28;;;;;;;7.40;4.90;;;;;;;;;;5017802;28;20205;-66
2022/09/22 07:21:00;;;;;;;13.73;5.33;;;;;;;;;;5035999;28;20507;-66
2022/09/22 07:23:26;;;;;;;10.30;5.10;;;;;;;;;;5035576;28;20570;-66
2022/09/22 07:25:59;;;;;;;8.37;4.83;;;;;;;;;;5017077;28;20194;-66
2022/09/22 07:28:27;;;;;;;8.50;5.17;;;;;;;;;;5035975;28;20164;-65
2022/09/22 07:30:56;;;;;;;9.47;5.40;;;;;;;;;;5018949;28;20203;-66
2022/09/22 07:33:22;;;;;;;7.30;4.47;;;;;;;;;;5017674;28;20193;-66
2022/09/22 07:35:49;;;;;;;6.47;4.60;;;;;;;;;;5035188;28;20219;-65
2022/09/22 07:38:15;;;;;;;13.43;4.80;;;;;;;;;;5035730;28;20198;-65
2022/09/22 07:40:50;;;;;;;11.40;4.93;;;;;;;;;;5017806;28;20705;-64
2022/09/22 07:43:16;;;;;;;10.93;4.90;;;;;;;;;;5035209;28;20324;-64
2022/09/22 07:45:42;;;;;;;8.20;4.37;;;;;;;;;;5035420;28;20195;-65
2022/09/22 07:50:54;;;;;;;6.07;4.07;;;;;;;;;;5034496;28;20185;-65
2022/09/22 07:53:20;;;;;;;9.33;3.80;;;;;;;;;;5034304;28;20186;-65
2022/09/22 07:55:47;;;;;;;8.43;4.87;;;;;;;;;;5033843;28;20239;-65
2022/09/22 07:58:13;;;;;;;6.43;4.50;;;;;;;;;;5034287;28;20179;-65
2022/09/22 08:00:39;;;;;;;7.43;4.87;;;;;;;;;;5034086;28;20183;-66
2022/09/22 08:03:06;;;;;;;8.53;4.20;;;;;;;;;;5033893;28;20207;-66
2022/09/22 08:05:32;;;;;;;10.27;4.57;;;;;;;;;;5016220;28;20574;-65
2022/09/22 08:08:01;;;;;;;13.53;4.80;;;;;;;;;;5033882;28;20175;-65
2022/09/22 08:10:26;;;;;;;11.17;4.73;;;;;;;;;;5016082;28;20266;-65
2022/09/22 08:12:53;;;;;;;9.43;5.17;;;;;;;;;;5016163;28;20278;-65
2022/09/22 08:15:21;;;;;;;13.03;6.17;;;;;;;;;;5015906;28;20230;-65
2022/09/22 08:17:48;;;;;;;9.63;6.47;;;;;;;;;;5034063;28;20239;-69
2022/09/22 08:20:14;;;;;;;12.67;5.87;;;;;;;;;;5033769;28;20232;-66
2022/09/22 08:22:41;;;;;;;11.23;5.83;;;;;;;;;;5033750;28;20261;-65
2022/09/22 08:25:11;;;;;;;7.77;5.33;;;;;;;;;;5034415;28;20247;-68
2022/09/22 08:27:38;;;;;;;8.93;4.50;;;;;;;;;;5034788;28;20655;-65
2022/09/22 08:30:06;;;;;;;8.10;4.83;;;;;;;;;;5034674;28;20178;-67
2022/09/22 08:32:34;;;;;;;9.63;4.53;;;;;;;;;;5034412;28;20257;-71
2022/09/22 08:35:00;;;;;;;9.90;3.87;;;;;;;;;;5034753;28;20202;-65
2022/09/22 08:37:26;;;;;;;8.63;3.93;;;;;;;;;;5016276;28;20179;-66
2022/09/22 08:39:53;;;;;;;7.30;4.17;;;;;;;;;;5016784;28;20201;-65
2022/09/22 08:42:20;;;;;;;8.53;4.73;;;;;;;;;;5017512;28;20179;-65
2022/09/22 08:44:49;;;;;;;9.33;5.80;;;;;;;;;;5016578;28;20305;-65
2022/09/22 08:51:50;;;;;;;10.07;5.03;;;;;;;;;;5016465;28;20191;-67
2022/09/22 08:53:26;;;;;;;9.77;5.17;;;;;;;;;;4991977;28;20193;-67
2022/09/22 08:55:57;;;;;;;12.43;5.17;;;;;;;;;;5033234;28;20229;-67
2022/09/22 08:58:31;;;;;;;11.47;4.67;;;;;;;;;;5033572;28;20175;-67
2022/09/22 09:01:11;;;;;;;7.30;3.90;;;;;;;;;;5033311;28;20167;-68
2022/09/22 09:03:40;;;;;;;6.77;4.10;;;;;;;;;;5033525;28;20191;-65
2022/09/22 09:06:24;;;;;;;9.90;4.17;;;;;;;;;;5033297;28;20189;-65
2022/09/22 09:08:54;;;;;;;7.43;3.90;;;;;;;;;;5015286;28;20178;-65
2022/09/22 09:11:39;;;;;;;8.67;4.37;;;;;;;;;;5033102;28;20526;-65
2022/09/22 09:14:08;;;;;;;10.87;4.70;;;;;;;;;;5032985;28;20697;-65
2022/09/22 09:16:37;;;;;;;10.93;4.33;;;;;;;;;;5015248;28;20179;-65
2022/09/22 09:19:12;;;;;;;10.07;4.13;;;;;;;;;;5015278;28;20183;-65
2022/09/22 09:21:40;;;;;;;10.97;5.43;;;;;;;;;;5015307;28;20182;-65
2022/09/22 09:24:11;;;;;;;10.23;5.70;;;;;;;;;;5032775;28;20625;-66
2022/09/22 09:26:37;;;;;;;12.37;5.40;;;;;;;;;;5033383;28;20186;-65
2022/09/22 09:29:07;;;;;;;8.43;5.87;;;;;;;;;;5033037;28;20644;-65
2022/09/22 09:31:42;;;;;;;12.80;5.73;;;;;;;;;;5015226;28;20221;-65
2022/09/22 09:34:13;;;;;;;12.10;7.13;;;;;;;;;;5014963;28;20206;-65
2022/09/22 09:36:40;;;;;;;13.70;6.10;;;;;;;;;;5015069;28;20175;-64
2022/09/22 09:39:13;;;;;;;13.53;6.93;;;;;;;;;;5032954;28;20183;-64
2022/09/22 09:41:40;;;;;;;15.83;7.60;;;;;;;;;;5032983;28;20260;-65
2022/09/22 09:44:06;;;;;;;10.63;5.80;;;;;;;;;;5015269;28;20219;-69
2022/09/22 09:46:51;;;;;;;16.00;7.30;;;;;;;;;;5015369;28;20187;-65
2022/09/22 09:49:19;;;;;;;11.93;6.90;;;;;;;;;;5034922;28;20517;-65
2022/09/22 09:51:49;;;;;;;16.23;8.83;;;;;;;;;;5036674;28;20175;-65
2022/09/22 09:54:16;;;;;;;14.97;8.27;;;;;;;;;;5036162;28;20211;-65
2022/09/22 09:57:01;;;;;;;20.00;8.13;;;;;;;;;;5036992;28;20258;-65
2022/09/22 10:02:19;;;;;;;21.63;8.33;;;;;;;;;;5036292;28;20183;-65
2022/09/22 10:04:50;;;;;;;13.67;7.27;;;;;;;;;;5036011;28;20214;-65
2022/09/22 10:07:17;;;;;;;11.80;5.17;;;;;;;;;;5036521;28;20179;-68
2022/09/22 10:09:44;;;;;;;6.83;3.93;;;;;;;;;;5018319;28;20179;-67
2022/09/22 10:12:29;;;;;;;5.90;4.07;;;;;;;;;;5035990;28;20179;-65
2022/09/22 10:14:57;;;;;;;7.87;4.80;;;;;;;;;;5036131;28;20207;-66
2022/09/22 10:17:39;;;;;;;8.20;4.67;;;;;;;;;;5036235;28;20187;-67
2022/09/22 10:20:19;;;;;;;8.27;4.87;;;;;;;;;;5036364;28;20172;-67
2022/09/22 10:22:45;;;;;;;11.57;5.07;;;;;;;;;;5035799;28;20175;-67
2022/09/22 10:25:30;;;;;;;10.30;5.07;;;;;;;;;;5018092;28;20207;-67
2022/09/22 10:28:02;;;;;;;8.73;4.80;;;;;;;;;;5035987;28;20159;-67
2022/09/22 10:30:31;;;;;;;11.30;7.77;;;;;;;;;;5035764;28;20229;-67
2022/09/22 10:33:14;;;;;;;9.97;6.37;;;;;;;;;;5035842;28;20179;-67
2022/09/22 10:35:41;;;;;;;12.63;7.30;;;;;;;;;;5035495;28;20202;-67
2022/09/22 10:38:14;;;;;;;10.30;5.47;;;;;;;;;;5035782;28;20183;-68
2022/09/22 10:40:42;;;;;;;10.40;5.67;;;;;;;;;;5017903;28;20190;-67
2022/09/22 10:43:35;;;;;;;11.73;6.03;;;;;;;;;;5035844;28;20199;-69
2022/09/22 10:46:22;;;;;;;8.83;4.40;;;;;;;;;;4982110;28;20207;-68
2022/09/22 10:49:02;;;;;;;6.87;4.40;;;;;;;;;;5035497;28;20160;-67
2022/09/22 10:51:35;;;;;;;5.00;3.30;;;;;;;;;;5017774;28;20261;-67
2022/09/22 10:54:07;;;;;;;3.47;2.77;;;;;;;;;;5035352;28;20209;-66
2022/09/22 10:56:38;;;;;;;5.77;3.40;;;;;;;;;;5035934;28;20576;-67
2022/09/22 10:59:23;;;;;;;4.63;3.10;;;;;;;;;;5035405;28;20181;-67
2022/09/22 11:01:57;;;;;;;3.73;3.03;;;;;;;;;;5016803;28;20540;-67
2022/09/22 11:04:29;;;;;;;6.57;3.40;;;;;;;;;;5035516;28;20764;-67
2022/09/22 11:12:51;;;;;;;7.60;3.40;;;;;;;;;;5035194;28;20182;-66
2022/09/22 11:15:20;;;;;;;6.77;3.37;;;;;;;;;;5035002;28;20191;-66
2022/09/22 11:17:59;;;;;;;7.63;4.60;;;;;;;;;;5017453;28;20211;-69
2022/09/22 11:20:25;;;;;;;7.77;4.30;;;;;;;;;;5017970;28;20177;-66
2022/09/22 11:22:57;;;;;;;5.87;3.90;;;;;;;;;;5035611;28;20258;-68
2022/09/22 11:25:23;;;;;;;9.33;3.27;;;;;;;;;;5034866;28;20232;-67
2022/09/22 11:27:56;;;;;;;4.97;2.63;;;;;;;;;;5017542;28;20233;-67
2022/09/22 11:30:23;;;;;;;8.60;2.60;;;;;;;;;;5017164;28;20172;-67
2022/09/22 11:33:01;;;;;;;3.67;2.27;;;;;;;;;;5017068;28;20179;-66
2022/09/22 11:35:34;;;;;;;5.03;2.57;;;;;;;;;;5034642;28;20186;-67
2022/09/22 11:38:08;;;;;;;3.80;2.37;;;;;;;;;;5034837;28;20243;-68
2022/09/22 11:40:53;;;;;;;3.60;2.10;;;;;;;;;;5016986;28;20179;-68
2022/09/22 11:43:25;;;;;;;4.97;2.17;;;;;;;;;;5035349;28;20640;-70
2022/09/22 11:45:56;;;;;;;2.77;2.00;;;;;;;;;;5034513;28;20206;-67
2022/09/22 11:48:37;;;;;;;4.50;2.03;;;;;;;;;;5017488;28;20175;-68
2022/09/22 11:51:21;;;;;;;4.43;2.87;;;;;;;;;;5035047;28;20195;-68
2022/09/22 11:53:57;;;;;;;3.00;2.27;;;;;;;;;;5016857;28;20549;-67
2022/09/22 11:56:40;;;;;;;5.10;2.20;;;;;;;;;;5035784;28;20258;-70
2022/09/22 11:59:29;;;;;;;2.97;1.70;;;;;;;;;;5035454;28;20255;-68
2022/09/22 12:01:56;;;;;;;3.23;1.70;;;;;;;;;;5034062;23;20229;-69
2022/09/22 12:04:35;;;;;;;3.40;1.53;;;;;;;;;;5054003;28;20260;-68
2022/09/22 12:07:06;;;;;;;2.23;1.80;;;;;;;;;;5036608;28;20182;-68
2022/09/22 12:09:43;;;;;;;4.87;2.23;;;;;;;;;;5036035;28;20175;-67
2022/09/22 12:12:14;;;;;;;3.03;2.23;;;;;;;;;;5036255;28;20194;-67
2022/09/22 12:14:40;;;;;;;4.13;1.90;;;;;;;;;;5036039;28;20642;-67
2022/09/22 12:17:17;;;;;;;3.47;1.83;;;;;;;;;;5053825;28;20186;-67
2022/09/22 12:19:55;;;;;;;3.23;1.83;;;;;;;;;;5035846;28;20182;-68
2022/09/22 12:22:24;;;;;;;2.70;2.00;;;;;;;;;;5035594;28;20749;-68
2022/09/22 12:24:50;;;;;;;2.87;2.07;;;;;;;;;;5035619;28;20194;-67
2022/09/22 12:27:21;;;;;;;1.80;1.70;;;;;;;;;;5035610;28;20238;-68
2022/09/22 12:29:53;;;;;;;2.93;1.70;;;;;;;;;;5053924;28;20236;-67
2022/09/22 12:32:22;;;;;;;3.03;1.80;;;;;;;;;;5053773;28;20217;-68
2022/09/22 12:34:48;;;;;;;2.30;1.50;;;;;;;;;;5035456;28;20240;-68
2022/09/22 12:37:30;;;;;;;2.77;1.90;;;;;;;;;;5035378;28;20535;-67
2022/09/22 12:39:59;;;;;;;2.77;1.50;;;;;;;;;;5035402;28;20214;-67
2022/09/22 12:42:33;;;;;;;3.20;1.60;;;;;;;;;;5053115;28;20289;-67
2022/09/22 12:45:06;;;;;;;2.77;1.60;;;;;;;;;;5053291;28;20194;-68
2022/09/22 12:47:40;;;;;;;2.50;1.67;;;;;;;;;;5053480;28;20158;-68
2022/09/22 12:50:26;;;;;;;3.30;1.77;;;;;;;;;;5053358;28;20527;-68
2022/09/22 12:52:52;;;;;;;2.50;2.00;;;;;;;;;;5052792;28;20194;-68
2022/09/22 12:55:26;;;;;;;2.60;2.00;;;;;;;;;;5053683;28;20515;-68
2022/09/22 12:57:52;;;;;;;2.97;1.80;;;;;;;;;;5053305;28;20174;-68
2022/09/22 13:00:28;;;;;;;2.87;1.50;;;;;;;;;;5053208;28;20175;-68
2022/09/22 13:02:55;;;;;;;3.30;1.50;;;;;;;;;;5052879;28;20220;-68
2022/09/22 13:05:24;;;;;;;2.07;1.60;;;;;;;;;;5052935;28;20244;-68
2022/09/22 13:07:54;;;;;;;3.27;1.87;;;;;;;;;;5035145;28;20201;-68
2022/09/22 13:10:20;;;;;;;2.40;1.80;;;;;;;;;;5052928;28;20186;-68
2022/09/22 13:13:01;;;;;;;1.40;1.30;;;;;;;;;;5052858;28;20195;-68
2022/09/22 13:15:30;;;;;;;1.70;1.60;;;;;;;;;;5052849;28;20202;-68
2022/09/22 13:17:55;;;;;;;3.47;1.73;;;;;;;;;;5035012;28;20597;-69
2022/09/22 13:20:28;;;;;;;4.83;2.00;;;;;;;;;;5053362;28;20209;-69
2022/09/22 13:22:55;;;;;;;2.70;1.50;;;;;;;;;;5034989;28;20190;-68
2022/09/22 13:25:29;;;;;;;2.43;1.60;;;;;;;;;;5057156;28;20198;-68
2022/09/22 13:28:09;;;;;;;4.00;1.80;;;;;;;;;;5057518;28;20653;-69
2022/09/22 13:30:37;;;;;;;2.70;1.60;;;;;;;;;;5038886;28;20178;-69
2022/09/22 13:33:03;;;;;;;2.17;1.80;;;;;;;;;;5056901;28;20233;-68
2022/09/22 13:35:34;;;;;;;2.67;2.00;;;;;;;;;;5056566;28;20266;-68
2022/09/22 13:38:00;;;;;;;2.70;1.80;;;;;;;;;;5056912;28;20183;-68
2022/09/22 13:40:28;;;;;;;3.37;2.07;;;;;;;;;;5038708;28;20189;-68
2022/09/22 13:42:55;;;;;;;2.80;2.10;;;;;;;;;;5038481;28;20221;-68
2022/09/22 13:45:24;;;;;;;6.53;2.10;;;;;;;;;;5056547;28;20179;-68
2022/09/22 13:47:53;;;;;;;3.50;1.80;;;;;;;;;;5056793;28;20175;-68
2022/09/22 13:50:20;;;;;;;3.00;1.90;;;;;;;;;;5056961;28;20178;-68
2022/09/22 13:52:47;;;;;;;2.80;1.97;;;;;;;;;;5038418;28;20296;-68
2022/09/22 13:55:19;;;;;;;8.27;2.03;;;;;;;;;;5056589;28;20182;-68
2022/09/22 13:57:46;;;;;;;1.60;1.50;;;;;;;;;;5056492;28;20186;-68
2022/09/22 14:00:19;;;;;;;2.37;1.70;;;;;;;;;;5056103;28;20588;-69
2022/09/22 14:02:45;;;;;;;2.63;1.97;;;;;;;;;;5056067;28;20233;-68
2022/09/22 14:05:19;;;;;;;3.40;1.60;;;;;;;;;;5056055;28;20174;-68
2022/09/22 14:07:45;;;;;;;2.50;1.67;;;;;;;;;;5038122;28;20186;-68
2022/09/22 14:10:16;;;;;;;2.57;1.60;;;;;;;;;;5056123;28;20182;-68
2022/09/22 14:12:42;;;;;;;2.17;1.90;;;;;;;;;;5055969;28;20202;-68
2022/09/22 14:15:27;;;;;;;1.83;1.73;;;;;;;;;;5038059;28;20193;-68
2022/09/22 14:17:53;;;;;;;2.00;1.80;;;;;;;;;;5055911;28;20274;-68
2022/09/22 14:20:19;;;;;;;2.43;2.23;;;;;;;;;;5056004;28;20627;-69
2022/09/22 14:22:45;;;;;;;5.33;2.30;;;;;;;;;;5037785;28;20280;-68
2022/09/22 14:25:21;;;;;;;5.47;2.10;;;;;;;;;;5037767;28;20277;-68
2022/09/22 14:27:54;;;;;;;3.40;1.90;;;;;;;;;;5055965;28;20571;-68
2022/09/22 14:30:20;;;;;;;2.67;2.10;;;;;;;;;;5055857;28;20181;-68
2022/09/22 14:32:48;;;;;;;4.33;1.97;;;;;;;;;;5037936;28;20546;-68
2022/09/22 14:35:36;;;;;;;3.53;1.90;;;;;;;;;;5054624;28;20265;-68
2022/09/22 14:38:03;;;;;;;3.77;1.97;;;;;;;;;;5056017;28;20159;-68
2022/09/22 14:40:29;;;;;;;3.03;2.10;;;;;;;;;;5037489;28;20178;-68
2022/09/22 14:43:04;;;;;;;2.20;2.00;;;;;;;;;;5055296;28;20202;-69
2022/09/22 14:45:31;;;;;;;2.63;2.17;;;;;;;;;;5055550;28;20618;-68
2022/09/22 14:48:15;;;;;;;3.63;1.97;;;;;;;;;;5055307;28;20177;-68
2022/09/22 14:51:00;;;;;;;4.03;2.30;;;;;;;;;;5055421;28;20250;-68
2022/09/22 14:53:29;;;;;;;2.70;2.10;;;;;;;;;;5055039;28;20273;-68
2022/09/22 14:56:02;;;;;;;4.23;1.97;;;;;;;;;;5037116;28;20189;-69
2022/09/22 14:58:29;;;;;;;2.37;1.97;;;;;;;;;;5037217;28;20225;-69
2022/09/22 15:03:45;;;;;;;2.90;2.10;;;;;;;;;;5055135;28;20267;-69
2022/09/22 15:06:12;;;;;;;2.77;1.87;;;;;;;;;;5037085;28;20182;-69
2022/09/22 15:08:38;;;;;;;2.37;1.80;;;;;;;;;;5057456;28;20178;-82